Concord, CA (94521)

11:15 AM PST on December 27, 2014 (GMT -0800)
Camino Estrada | Change Station
CLOSE
Current Station
Personal Weather Station
Location: Concord, CA
Elevation: 387 ft
Nearby Weather Stations

Elev 387 ft 37.95 °N, 121.94 °W | Updated 32 seconds ago

Clear
Clear
49.5 °F
Feels Like 50 °F
N
0.0
Wind Variable Wind from West
Gusts 2.2 mph

Today
High -- | Low -- °F
--% Chance of Precip.
Yesterday
High -- | Low -- °F
Precip. -- in
7:22 AM 4:55 PM
Waxing Crescent, 39% visible
Pressure 30.36 in
Visibility 10.0 miles
Clouds Clear
Windchill 50 °F
Dew Point 34 °F
Humidity 55%
Rainfall 0.00 in
Snow Depth Not available.
UV 1 out of 12
Pollen 5.70 out of 12
Air Quality Not available.
Flu Activity Not available.
METAR KCCR 271753Z 32003KT 10SM CLR 08/02 A3040 RMK AO2 SLP280 T00780022 10078 20011 53027

More Conditions Fewer Conditions

Pressure 30.36 in
Visibility 10.0 miles
Clouds Clear
Windchill 50 °F
Dew Point 34 °F
Humidity 55%
Rainfall 0.00 in
Snow Depth Not available.
UV 1 out of 12
Pollen 5.70 out of 12
Air Quality Not available.
Flu Activity Not available.
METAR KCCR 271753Z 32003KT 10SM CLR 08/02 A3040 RMK AO2 SLP280 T00780022 10078 20011 53027

More Conditions Fewer Conditions

10-Day Weather Forecast

Almanac

Astronomy

Dec. 27, 2014 Rise Set
Actual Time
Civil Twilight
Nautical Twilight
Astronomical Twilight
Moon
Length of Visible Light
Length of Day
Tomorrow will be .
, % of the Moon is Illuminated

Today's Extremes

State Highs State Lows

Community

WunderPhotos

Upload Photos

1,781,016 photos uploaded!

WunderBlogs® & News

Nearby

Air Quality

  Air Quality AQ Index Pollutant
Not available.

Snow Depth

Station Depth Elevation

Earthquake Activity

City Distance Mag. Time & Date
Minimum magnitude displayed is 2.5.

Coastal Water Temperatures

Place Temperature

Nearby Weather Stations